Hamburg Township, Michigan
Current Conditions -  °F | °C
As of 10:53 PM on Friday 28 Nov 2014 (Local Time) from KARB Reporting Station
Overcast Overcast  
Wind Chill: 23°   Ceiling: 4000
Heat Index: 28°   Visibility: 10mi
Dew Point: 21°   Wind: 5mph
Humidity: 75%   Direction: 150°SSE
Pressure: 30.07"   Gusts: NA
Location:  42.409°N, 83.7757°W
Report Text: KARB 290353Z AUTO 15004KT 10SM OVC040 M02/M06 A3007 RMK AO2 SLP195 T10221061
Loading
Personal Weather Stations






























Interactive Weather Map New forecast layout! Learn more

10-Day Weather Forecast

Advertisements
Track Severe Weather on mobile